Time;durP1;ratioP1;P1;durP2;ratioP2;P2;SDS_P1;SDS_P2;PMS_P1;PMS_P2;Temp;Humidity;BMP_temperature;BMP_pressure;BME280_temperature;BME280_humidity;BME280_pressure;Samples;Min_cycle;Max_cycle;Signal;HPM_P1;HPM_P2
2023/05/31 00:01:33;;;;;;;3.58;2.90;;;;;;;13.03;73.35;102480.81;4974221;28;20065;-63
2023/05/31 00:03:58;;;;;;;3.90;3.40;;;;;;;13.05;76.41;102481.75;4972556;28;20030;-63
2023/05/31 00:06:23;;;;;;;3.55;3.08;;;;;;;13.04;76.64;102485.19;4973245;28;20405;-63
2023/05/31 00:08:48;;;;;;;3.50;3.20;;;;;;;12.95;77.60;102486.56;4975129;28;20034;-63
2023/05/31 00:11:14;;;;;;;5.22;3.40;;;;;;;12.99;77.46;102488.44;4974717;28;20448;-63
2023/05/31 00:13:39;;;;;;;3.83;3.10;;;;;;;12.95;76.58;102484.81;4974383;28;20038;-63
2023/05/31 00:16:06;;;;;;;3.42;2.92;;;;;;;12.94;76.75;102483.03;4973821;28;20058;-63
2023/05/31 00:18:32;;;;;;;4.60;3.00;;;;;;;12.88;77.10;102482.78;4974727;28;20050;-63
2023/05/31 00:20:57;;;;;;;4.88;3.20;;;;;;;12.85;77.46;102490.53;4973903;28;20064;-63
2023/05/31 00:23:22;;;;;;;3.45;3.10;;;;;;;12.80;78.39;102484.19;4973234;28;20113;-63
2023/05/31 00:25:47;;;;;;;4.22;3.17;;;;;;;12.71;78.16;102484.72;4973746;28;20144;-63
2023/05/31 00:28:13;;;;;;;3.90;3.28;;;;;;;12.68;78.84;102480.22;4974663;28;20027;-62
2023/05/31 00:30:38;;;;;;;3.88;3.20;;;;;;;12.60;77.60;102481.66;4974885;28;20501;-63
2023/05/31 00:33:05;;;;;;;3.65;3.10;;;;;;;12.56;78.15;102487.59;4976362;28;20502;-63
2023/05/31 00:35:30;;;;;;;3.70;3.00;;;;;;;12.60;79.53;102483.38;4977839;28;20098;-63
2023/05/31 00:37:55;;;;;;;3.50;3.17;;;;;;;12.57;79.99;102481.53;4978801;28;20031;-63
2023/05/31 00:40:20;;;;;;;4.32;3.28;;;;;;;12.60;79.36;102479.06;4976395;28;20041;-63
2023/05/31 00:42:46;;;;;;;3.70;3.13;;;;;;;12.58;79.29;102485.91;4977232;28;20170;-63
2023/05/31 00:45:11;;;;;;;3.40;3.10;;;;;;;12.53;78.56;102482.22;4976547;28;20402;-63
2023/05/31 00:47:37;;;;;;;3.58;3.00;;;;;;;12.52;79.21;102493.50;4976515;28;20116;-63
2023/05/31 00:50:02;;;;;;;3.38;3.00;;;;;;;12.53;78.65;102482.22;4976760;28;20169;-63
2023/05/31 00:52:30;;;;;;;4.55;2.95;;;;;;;12.49;79.28;102481.19;4977469;28;20085;-63
2023/05/31 00:54:55;;;;;;;3.80;2.95;;;;;;;12.50;79.04;102487.34;4976026;28;20042;-63
2023/05/31 00:57:21;;;;;;;3.40;2.70;;;;;;;12.48;79.22;102489.91;4975284;28;20034;-62
2023/05/31 00:59:46;;;;;;;4.40;3.17;;;;;;;12.43;78.83;102487.91;4976472;28;20505;-63
2023/05/31 01:02:12;;;;;;;4.30;3.17;;;;;;;12.40;80.99;102495.59;4976720;28;20034;-62
2023/05/31 01:04:38;;;;;;;3.95;3.28;;;;;;;12.42;80.35;102492.22;4977712;28;20034;-63
2023/05/31 01:07:04;;;;;;;3.50;3.00;;;;;;;12.41;81.00;102493.06;4975561;28;20070;-63
2023/05/31 01:09:30;;;;;;;3.92;3.13;;;;;;;12.42;81.01;102489.59;4975875;28;20149;-63
2023/05/31 01:12:05;;;;;;;4.35;3.35;;;;;;;12.35;80.43;102493.69;4977268;28;20117;-62
2023/05/31 01:14:55;;;;;;;3.90;3.20;;;;;;;12.38;79.90;102492.91;4978155;28;20058;-63
2023/05/31 01:17:30;;;;;;;3.80;3.08;;;;;;;12.26;82.10;102487.19;4976514;28;20062;-63
2023/05/31 01:20:00;;;;;;;3.70;2.90;;;;;;;12.25;81.53;102496.75;4977634;28;20054;-63
2023/05/31 01:22:56;;;;;;;4.43;3.30;;;;;;;12.25;81.76;102498.44;4977314;28;20022;-63
2023/05/31 01:25:56;;;;;;;4.28;2.92;;;;;;;12.26;81.87;102489.78;4977272;28;20472;-63
2023/05/31 01:28:22;;;;;;;4.00;3.42;;;;;;;12.23;82.18;102494.88;4977772;28;20434;-63
2023/05/31 01:30:49;;;;;;;4.63;3.10;;;;;;;12.17;81.98;102495.50;4977150;28;20065;-63
2023/05/31 01:33:17;;;;;;;3.65;2.90;;;;;;;12.16;78.96;102491.09;4977263;28;20035;-63
2023/05/31 01:35:42;;;;;;;3.90;3.17;;;;;;;12.14;82.58;102492.78;4977467;28;20093;-63
2023/05/31 01:38:07;;;;;;;3.25;2.72;;;;;;;12.05;78.48;102498.50;4976843;28;20026;-63
2023/05/31 01:40:34;;;;;;;4.90;3.33;;;;;;;12.08;83.26;102489.88;4976453;28;20041;-63
2023/05/31 01:42:59;;;;;;;4.22;3.20;;;;;;;12.02;81.43;102497.44;4975170;28;20030;-63
2023/05/31 01:45:27;;;;;;;3.45;2.95;;;;;;;12.04;83.16;102494.06;4975629;28;20088;-63
2023/05/31 01:48:00;;;;;;;3.83;3.00;;;;;;;12.05;82.33;102492.34;4976082;28;20103;-63
2023/05/31 01:50:26;;;;;;;3.70;2.85;;;;;;;12.02;83.61;102487.00;4975053;28;20510;-63
2023/05/31 01:52:52;;;;;;;3.50;2.92;;;;;;;11.95;84.10;102486.72;4974685;28;20027;-62
2023/05/31 01:55:17;;;;;;;3.40;2.70;;;;;;;11.90;80.59;102480.34;4975804;28;20037;-63
2023/05/31 01:57:45;;;;;;;3.45;2.67;;;;;;;11.90;80.71;102487.31;4974407;28;21031;-63
2023/05/31 02:00:12;;;;;;;3.92;3.03;;;;;;;11.94;82.75;102478.81;4975851;28;20034;-63
2023/05/31 02:02:44;;;;;;;4.45;3.47;;;;;;;11.86;84.54;102474.94;4974631;28;20023;-63
2023/05/31 02:05:12;;;;;;;4.47;3.10;;;;;;;11.82;84.03;102473.91;4975899;28;20505;-63
2023/05/31 02:07:38;;;;;;;3.70;2.85;;;;;;;11.82;83.13;102473.91;4973944;28;21025;-63
2023/05/31 02:10:05;;;;;;;3.70;2.97;;;;;;;11.82;84.83;102469.56;4974808;28;20112;-63
2023/05/31 02:12:30;;;;;;;3.72;3.20;;;;;;;11.85;84.72;102474.06;4974980;28;20768;-63
2023/05/31 02:14:55;;;;;;;3.70;2.92;;;;;;;11.77;83.46;102476.31;4974422;28;20569;-63
2023/05/31 02:17:24;;;;;;;3.80;3.20;;;;;;;11.79;83.87;102469.44;4975268;28;20055;-63
2023/05/31 02:19:53;;;;;;;4.20;3.20;;;;;;;11.79;83.33;102466.84;4974994;28;20027;-63
2023/05/31 02:22:19;;;;;;;4.05;2.83;;;;;;;11.82;84.35;102459.13;4975721;28;20397;-63
2023/05/31 02:24:45;;;;;;;3.53;3.15;;;;;;;11.86;84.78;102469.72;4973974;28;20026;-63
2023/05/31 02:27:11;;;;;;;4.10;3.20;;;;;;;11.86;84.44;102469.72;4974568;28;20402;-63
2023/05/31 02:29:36;;;;;;;3.90;3.20;;;;;;;11.78;85.02;102466.78;4975508;28;20296;-63
2023/05/31 02:32:02;;;;;;;4.45;3.20;;;;;;;11.78;84.99;102465.03;4975051;28;20614;-63
2023/05/31 02:34:27;;;;;;;4.43;3.30;;;;;;;11.74;85.47;102470.06;4975022;28;20036;-63
2023/05/31 02:36:53;;;;;;;3.70;3.05;;;;;;;11.70;84.88;102468.13;4974494;28;20483;-63
2023/05/31 02:39:18;;;;;;;3.83;3.30;;;;;;;11.63;84.62;102478.31;4974704;28;20046;-63
2023/05/31 02:41:44;;;;;;;4.05;3.10;;;;;;;11.59;86.42;102470.28;4975712;28;20041;-63
2023/05/31 02:44:09;;;;;;;3.83;3.00;;;;;;;11.55;86.72;102473.56;4975509;28;20486;-63
2023/05/31 02:46:35;;;;;;;3.60;2.90;;;;;;;11.57;86.70;102472.81;4975318;28;20138;-63
2023/05/31 02:49:01;;;;;;;4.00;2.92;;;;;;;11.53;84.48;102470.88;4976149;28;20030;-63
2023/05/31 02:51:26;;;;;;;3.88;3.15;;;;;;;11.53;83.51;102473.50;4974806;28;20033;-63
2023/05/31 02:53:51;;;;;;;3.85;3.38;;;;;;;11.57;86.13;102474.50;4975729;28;20053;-62
2023/05/31 02:56:18;;;;;;;4.10;3.15;;;;;;;11.57;86.40;102478.03;4975584;28;20026;-62
2023/05/31 02:58:43;;;;;;;4.53;3.50;;;;;;;11.54;86.33;102475.25;4974415;28;20022;-63
2023/05/31 03:01:08;;;;;;;4.68;3.20;;;;;;;11.55;86.44;102468.34;4973819;28;20044;-63
2023/05/31 03:03:34;;;;;;;3.90;3.00;;;;;;;11.50;85.29;102470.75;4974838;28;20351;-63
2023/05/31 03:05:59;;;;;;;4.03;3.45;;;;;;;11.46;86.90;102474.91;4974928;28;20034;-62
2023/05/31 03:08:24;;;;;;;4.25;3.35;;;;;;;11.46;86.98;102479.25;4975109;28;20031;-63
2023/05/31 03:10:50;;;;;;;4.10;3.30;;;;;;;11.47;86.65;102483.63;4973235;28;20066;-63
2023/05/31 03:13:15;;;;;;;3.60;2.97;;;;;;;11.47;86.53;102474.09;4974825;28;20034;-63
2023/05/31 03:15:40;;;;;;;4.70;3.28;;;;;;;11.48;87.10;102472.38;4974121;28;20038;-63
2023/05/31 03:18:05;;;;;;;3.85;3.20;;;;;;;11.47;86.82;102478.41;4974569;28;20158;-63
2023/05/31 03:20:32;;;;;;;3.97;3.05;;;;;;;11.46;86.39;102484.47;4974387;28;20093;-62
2023/05/31 03:22:58;;;;;;;3.80;3.20;;;;;;;11.42;86.54;102477.31;4973748;28;20031;-63
2023/05/31 03:25:25;;;;;;;4.30;3.28;;;;;;;11.40;86.87;102474.63;4974515;28;20925;-62
2023/05/31 03:27:50;;;;;;;3.90;2.85;;;;;;;11.39;86.33;102474.56;4974816;28;20023;-62
2023/05/31 03:30:16;;;;;;;4.18;3.35;;;;;;;11.38;86.86;102478.88;4974869;28;20026;-63
2023/05/31 03:32:41;;;;;;;4.65;3.35;;;;;;;11.37;87.04;102481.41;4973152;28;20030;-63
2023/05/31 03:35:07;;;;;;;4.25;3.33;;;;;;;11.30;87.73;102473.31;4974453;28;20034;-63
2023/05/31 03:37:32;;;;;;;4.63;3.40;;;;;;;11.26;87.49;102462.66;4974755;28;20027;-63
2023/05/31 03:39:58;;;;;;;4.45;3.45;;;;;;;11.27;87.88;102465.34;4974303;28;20120;-63
2023/05/31 03:42:23;;;;;;;4.38;3.50;;;;;;;11.26;87.92;102471.38;4972923;28;20061;-63
2023/05/31 03:44:48;;;;;;;4.63;3.78;;;;;;;11.27;87.99;102472.28;4971196;28;20018;-62
2023/05/31 03:47:13;;;;;;;4.85;3.50;;;;;;;11.25;88.92;102473.91;4974375;28;20043;-63
2023/05/31 03:49:39;;;;;;;4.22;3.50;;;;;;;11.27;86.26;102478.38;4974296;28;20039;-63
2023/05/31 03:52:05;;;;;;;5.00;3.58;;;;;;;11.21;88.81;102472.88;4972984;28;20022;-62
2023/05/31 03:54:30;;;;;;;4.45;3.35;;;;;;;11.20;88.79;102473.69;4972433;28;20409;-63
2023/05/31 03:56:55;;;;;;;4.72;3.65;;;;;;;11.21;88.26;102467.66;4973260;28;20040;-62
2023/05/31 03:59:21;;;;;;;4.32;3.70;;;;;;;11.22;89.01;102471.16;4973330;28;20390;-63
2023/05/31 04:01:46;;;;;;;5.00;3.60;;;;;;;11.22;88.65;102476.38;4973488;28;20564;-63
2023/05/31 04:04:12;;;;;;;4.50;3.53;;;;;;;11.23;88.65;102475.56;4972837;28;20045;-63
2023/05/31 04:06:38;;;;;;;4.25;3.50;;;;;;;11.23;88.77;102468.63;4974653;28;20481;-63
2023/05/31 04:09:04;;;;;;;4.63;3.45;;;;;;;11.23;89.47;102471.22;4977762;28;20672;-63
2023/05/31 04:11:29;;;;;;;4.30;3.47;;;;;;;11.25;88.93;102467.00;4976749;28;20121;-63
2023/05/31 04:13:55;;;;;;;5.00;3.58;;;;;;;11.27;89.44;102462.72;4978085;28;20110;-63
2023/05/31 04:16:20;;;;;;;4.32;3.55;;;;;;;11.23;86.30;102471.22;4977190;28;20138;-63
2023/05/31 04:18:45;;;;;;;4.05;3.42;;;;;;;11.26;88.94;102466.16;4976553;28;20433;-62
2023/05/31 04:21:10;;;;;;;4.22;3.63;;;;;;;11.24;88.48;102473.03;4977010;28;20106;-63
2023/05/31 04:23:36;;;;;;;4.82;3.42;;;;;;;11.20;89.21;102465.88;4976250;28;20093;-63
2023/05/31 04:26:02;;;;;;;4.55;3.40;;;;;;;11.18;89.61;102471.84;4978123;28;20434;-63
2023/05/31 04:28:29;;;;;;;5.75;3.67;;;;;;;11.19;90.08;102474.50;4976369;28;20541;-63
2023/05/31 04:30:56;;;;;;;4.35;3.60;;;;;;;11.22;90.14;102477.25;4977698;28;20034;-63
2023/05/31 04:33:22;;;;;;;4.93;3.78;;;;;;;11.20;91.47;102478.03;4975530;28;20088;-63
2023/05/31 04:35:48;;;;;;;4.70;3.78;;;;;;;11.21;91.23;102479.81;4975127;28;20030;-62
2023/05/31 04:38:16;;;;;;;4.70;3.97;;;;;;;11.23;91.20;102478.19;4976439;28;20042;-62
2023/05/31 04:40:42;;;;;;;4.53;3.85;;;;;;;11.24;89.99;102478.25;4977654;28;20035;-63
2023/05/31 04:43:07;;;;;;;5.00;3.97;;;;;;;11.28;90.62;102468.84;4977319;28;20041;-63
2023/05/31 04:45:33;;;;;;;5.47;4.55;;;;;;;11.28;92.48;102468.84;4978053;28;20019;-63
2023/05/31 04:47:58;;;;;;;5.03;4.03;;;;;;;11.30;91.51;102465.47;4978229;28;20483;-57
2023/05/31 04:50:24;;;;;;;5.63;4.18;;;;;;;11.34;91.67;102470.84;4978149;28;20077;-57
2023/05/31 04:52:51;;;;;;;5.05;4.35;;;;;;;11.33;93.20;102469.94;4976985;28;20058;-57
2023/05/31 04:55:19;;;;;;;4.75;3.72;;;;;;;11.35;90.10;102476.13;4972949;28;20035;-57
2023/05/31 04:57:44;;;;;;;5.25;4.28;;;;;;;11.39;91.76;102471.97;4977548;28;20034;-56
2023/05/31 05:00:15;;;;;;;5.35;4.15;;;;;;;11.44;92.13;102480.88;4977563;28;20057;-57
2023/05/31 05:02:40;;;;;;;4.68;4.07;;;;;;;11.45;89.90;102472.25;4979164;28;20034;-57
2023/05/31 05:05:06;;;;;;;5.25;4.28;;;;;;;11.48;91.21;102483.72;4977414;28;20026;-57
2023/05/31 05:07:32;;;;;;;5.63;4.60;;;;;;;11.48;92.71;102475.91;4977591;28;20042;-57
2023/05/31 05:09:57;;;;;;;5.45;4.15;;;;;;;11.48;87.35;102478.50;4976177;28;20033;-57
2023/05/31 05:12:22;;;;;;;4.95;4.30;;;;;;;11.54;87.94;102482.22;4977063;28;20069;-57
2023/05/31 05:14:48;;;;;;;4.93;4.38;;;;;;;11.56;89.21;102481.47;4975541;28;20030;-57
2023/05/31 05:17:13;;;;;;;5.65;4.88;;;;;;;11.59;91.55;102480.72;4976257;28;20577;-57
2023/05/31 05:19:38;;;;;;;5.28;4.00;;;;;;;11.58;86.23;102478.91;4974341;28;20458;-57
2023/05/31 05:22:04;;;;;;;5.63;4.28;;;;;;;11.59;87.49;102481.59;4975812;28;20549;-57
2023/05/31 05:24:29;;;;;;;5.57;4.22;;;;;;;11.65;90.46;102481.88;4975281;28;20031;-57
2023/05/31 05:26:55;;;;;;;5.70;4.55;;;;;;;11.71;89.84;102493.44;4976211;28;20454;-57
2023/05/31 05:29:20;;;;;;;5.65;4.00;;;;;;;11.75;89.76;102479.69;4976497;28;20980;-57
2023/05/31 05:31:48;;;;;;;5.72;4.90;;;;;;;11.77;90.98;102481.53;4976462;28;20356;-57
2023/05/31 05:34:13;;;;;;;6.03;4.80;;;;;;;11.81;88.29;102477.34;4976237;28;20042;-57
2023/05/31 05:36:39;;;;;;;6.15;5.00;;;;;;;11.87;91.65;102485.44;4976217;28;20026;-57
2023/05/31 05:39:06;;;;;;;5.30;4.53;;;;;;;11.94;92.26;102479.72;4977095;28;20029;-57
2023/05/31 05:41:31;;;;;;;5.82;4.47;;;;;;;12.00;90.67;102479.97;4976789;28;20053;-57
2023/05/31 05:43:57;;;;;;;7.07;4.95;;;;;;;12.08;91.37;102484.63;4975707;28;20477;-57
2023/05/31 05:46:22;;;;;;;5.70;5.10;;;;;;;12.14;91.94;102483.19;4977227;28;20022;-57
2023/05/31 05:48:47;;;;;;;5.78;5.18;;;;;;;12.23;92.08;102482.72;4976496;28;20118;-57
2023/05/31 05:51:13;;;;;;;5.70;4.97;;;;;;;12.30;91.87;102478.66;4975720;28;20478;-57
2023/05/31 05:53:39;;;;;;;5.35;4.85;;;;;;;12.35;87.94;102484.94;4975589;28;20034;-57
2023/05/31 05:56:04;;;;;;;6.28;4.93;;;;;;;12.44;90.53;102484.44;4975087;28;20401;-57
2023/05/31 05:58:30;;;;;;;6.15;5.55;;;;;;;12.49;88.26;102475.09;4976425;28;20045;-57
2023/05/31 06:00:55;;;;;;;5.05;4.40;;;;;;;12.58;89.32;102482.41;4976663;28;20061;-57
2023/05/31 06:03:23;;;;;;;5.45;4.82;;;;;;;12.65;88.39;102487.97;4975947;28;20034;-57
2023/05/31 06:05:48;;;;;;;5.88;5.20;;;;;;;12.73;87.51;102483.06;4973952;28;20026;-57
2023/05/31 06:08:13;;;;;;;6.10;5.28;;;;;;;12.86;88.35;102489.66;4974777;28;20042;-63
2023/05/31 06:10:40;;;;;;;5.07;4.40;;;;;;;12.94;87.70;102479.53;4976104;28;20113;-63
2023/05/31 06:13:06;;;;;;;5.82;5.00;;;;;;;13.01;89.03;102481.56;4974252;28;20034;-63
2023/05/31 06:15:31;;;;;;;6.45;5.20;;;;;;;13.08;88.87;102475.75;4972863;28;20034;-63
2023/05/31 06:17:56;;;;;;;6.10;4.80;;;;;;;13.17;87.96;102483.06;4975210;28;20043;-63
2023/05/31 06:20:22;;;;;;;5.22;4.65;;;;;;;13.29;86.58;102486.13;4973029;28;20043;-63
2023/05/31 06:22:49;;;;;;;5.50;4.90;;;;;;;13.38;88.33;102483.00;4975373;28;20081;-63
2023/05/31 06:25:14;;;;;;;5.88;5.15;;;;;;;13.48;87.23;102479.91;4973824;28;20327;-63
2023/05/31 06:27:41;;;;;;;5.90;5.20;;;;;;;13.58;87.16;102494.25;4976549;28;20265;-63
2023/05/31 06:30:09;;;;;;;6.88;5.40;;;;;;;13.70;87.51;102496.44;4973655;28;20050;-63
2023/05/31 06:32:35;;;;;;;5.75;5.10;;;;;;;13.82;86.35;102490.78;4974859;28;20038;-63
2023/05/31 06:35:01;;;;;;;5.97;5.13;;;;;;;13.95;86.93;102487.78;4975178;28;20033;-63
2023/05/31 06:37:27;;;;;;;6.25;5.43;;;;;;;14.03;87.21;102488.94;4972959;28;20057;-64
2023/05/31 06:39:53;;;;;;;6.68;4.80;;;;;;;14.13;85.06;102491.88;4974979;28;20454;-64
2023/05/31 06:42:19;;;;;;;5.47;4.80;;;;;;;14.34;86.21;102490.00;4975871;28;20023;-64
2023/05/31 06:44:45;;;;;;;5.80;5.20;;;;;;;14.50;86.52;102501.94;4976186;28;20076;-64
2023/05/31 06:47:11;;;;;;;6.00;5.40;;;;;;;14.60;85.31;102488.28;4974341;28;20037;-63
2023/05/31 06:49:36;;;;;;;6.05;5.22;;;;;;;14.73;85.34;102492.22;4975844;28;20030;-64
2023/05/31 06:52:02;;;;;;;5.38;4.88;;;;;;;14.76;84.28;102487.09;4974446;28;20025;-64
2023/05/31 06:54:27;;;;;;;6.47;4.82;;;;;;;14.81;83.66;102496.84;4972064;28;20443;-64
2023/05/31 06:56:53;;;;;;;5.93;5.10;;;;;;;14.89;82.96;102498.88;4971860;28;20027;-64
2023/05/31 06:59:19;;;;;;;6.72;5.10;;;;;;;14.94;82.04;102501.63;4973822;28;20141;-64
2023/05/31 07:01:44;;;;;;;6.32;4.70;;;;;;;15.02;82.14;102505.41;4973566;28;20134;-64
2023/05/31 07:04:10;;;;;;;5.65;5.03;;;;;;;15.12;82.09;102496.97;4976206;28;20111;-64
2023/05/31 07:06:37;;;;;;;5.50;4.90;;;;;;;15.23;82.58;102504.28;4975220;28;20070;-64
2023/05/31 07:09:05;;;;;;;5.43;4.85;;;;;;;15.34;80.65;102494.09;4974804;28;20516;-64
2023/05/31 07:11:30;;;;;;;5.85;4.32;;;;;;;15.44;80.82;102491.81;4975393;28;20027;-64
2023/05/31 07:14:01;;;;;;;6.10;4.90;;;;;;;15.61;82.01;102491.41;4975274;28;20049;-64
2023/05/31 07:16:27;;;;;;;5.63;4.70;;;;;;;15.72;81.07;102486.50;4975097;28;20063;-64
2023/05/31 07:18:56;;;;;;;5.68;5.00;;;;;;;15.87;79.80;102489.56;4956032;28;20035;-64
2023/05/31 07:21:22;;;;;;;5.90;4.93;;;;;;;15.97;79.65;102483.75;5074852;23;20037;-58
2023/05/31 07:23:47;;;;;;;5.78;4.70;;;;;;;16.01;75.20;102483.84;5127783;23;20081;-58
2023/05/31 07:26:15;;;;;;;5.53;4.80;;;;;;;15.98;77.70;102480.25;4966853;28;20037;-58
2023/05/31 07:28:44;;;;;;;5.72;4.80;;;;;;;16.06;78.52;102480.47;4966891;28;20058;-58
2023/05/31 07:31:10;;;;;;;5.25;4.68;;;;;;;16.26;80.40;102472.22;4962716;28;20030;-58
2023/05/31 07:33:35;;;;;;;5.72;4.95;;;;;;;16.33;79.24;102475.03;4967068;28;20034;-58
2023/05/31 07:36:01;;;;;;;6.32;4.80;;;;;;;16.40;76.33;102469.97;4965941;28;20022;-59
2023/05/31 07:38:26;;;;;;;5.72;4.88;;;;;;;16.55;77.87;102469.44;4966629;28;20050;-58
2023/05/31 07:40:52;;;;;;;5.93;4.70;;;;;;;16.77;78.43;102462.97;4961336;28;20065;-59
2023/05/31 07:43:20;;;;;;;5.05;4.28;;;;;;;16.89;77.22;102470.28;4965554;28;20034;-59
2023/05/31 07:45:46;;;;;;;6.45;4.68;;;;;;;16.97;76.46;102468.72;4966663;28;20050;-59
2023/05/31 07:48:12;;;;;;;5.82;4.38;;;;;;;16.92;74.45;102465.13;4965677;28;20030;-59
2023/05/31 07:50:37;;;;;;;5.45;4.07;;;;;;;16.98;76.31;102465.25;4960722;28;20034;-59
2023/05/31 07:58:01;;;;;;;6.15;4.38;;;;;;;17.34;71.73;102459.91;4975943;28;19926;-65
2023/05/31 08:00:26;;;;;;;6.22;4.90;;;;;;;17.33;70.88;102460.75;4975350;28;20037;-65
2023/05/31 08:02:52;;;;;;;6.07;4.65;;;;;;;17.37;73.98;102459.97;4976540;28;20109;-65
2023/05/31 08:05:17;;;;;;;5.82;4.50;;;;;;;17.44;74.65;102455.72;4977986;28;20062;-65
2023/05/31 08:07:42;;;;;;;6.43;5.22;;;;;;;17.46;70.19;102451.38;4977975;28;20053;-65
2023/05/31 08:10:09;;;;;;;6.30;4.60;;;;;;;17.65;72.78;102452.63;4975997;28;20447;-65
2023/05/31 08:12:34;;;;;;;6.53;4.65;;;;;;;17.95;74.56;102453.25;4977507;28;20030;-65
2023/05/31 08:14:59;;;;;;;5.53;4.80;;;;;;;18.15;72.00;102445.72;4977167;28;20019;-65
2023/05/31 08:17:26;;;;;;;5.85;4.75;;;;;;;18.33;70.19;102451.28;4978099;28;20394;-65
2023/05/31 08:19:51;;;;;;;6.88;4.90;;;;;;;18.57;70.93;102455.22;5091195;23;20145;-59
2023/05/31 08:22:16;;;;;;;6.60;4.70;;;;;;;18.66;69.88;102446.56;4962880;28;20031;-59
2023/05/31 08:24:42;;;;;;;4.93;4.13;;;;;;;18.79;69.23;102453.78;4964468;28;20114;-59
2023/05/31 08:27:07;;;;;;;5.22;4.20;;;;;;;18.86;66.34;102447.78;4966402;28;20030;-59
2023/05/31 08:29:33;;;;;;;5.93;4.60;;;;;;;18.90;67.63;102452.25;4966949;28;20097;-59
2023/05/31 08:31:59;;;;;;;5.80;4.15;;;;;;;18.93;67.50;102448.75;4964998;28;20134;-59
2023/05/31 08:34:24;;;;;;;4.60;3.90;;;;;;;19.11;67.08;102449.00;4966992;28;20026;-59
2023/05/31 08:36:49;;;;;;;5.43;4.22;;;;;;;19.19;63.33;102448.22;4966381;28;20062;-60
2023/05/31 08:39:15;;;;;;;6.32;4.20;;;;;;;19.29;64.95;102436.91;4966559;28;20038;-59
2023/05/31 08:42:02;;;;;;;5.35;4.10;;;;;;;19.28;63.30;102441.31;4965902;28;20037;-60
2023/05/31 08:44:28;;;;;;;4.72;3.58;;;;;;;19.50;67.18;102436.28;4966110;28;20035;-59
2023/05/31 08:46:57;;;;;;;5.28;4.25;;;;;;;19.80;64.28;102433.16;4966162;28;20503;-65
2023/05/31 08:49:24;;;;;;;5.65;4.10;;;;;;;20.04;63.78;102443.97;4966240;28;20058;-65
2023/05/31 08:51:49;;;;;;;5.68;4.35;;;;;;;20.02;61.15;102428.06;4965534;28;20046;-66
2023/05/31 08:54:16;;;;;;;4.40;3.70;;;;;;;20.17;62.36;102429.97;4969011;28;20478;-65
2023/05/31 08:56:43;;;;;;;5.25;4.15;;;;;;;20.32;65.34;102437.19;4967901;28;20026;-65
2023/05/31 08:59:10;;;;;;;5.97;4.00;;;;;;;20.55;64.48;102431.16;4969698;28;20030;-65
2023/05/31 09:01:41;;;;;;;4.82;4.25;;;;;;;20.69;63.26;102421.59;4969049;28;20482;-65
2023/05/31 09:04:06;;;;;;;4.80;3.67;;;;;;;20.83;60.65;102422.56;4969425;28;20049;-66
2023/05/31 09:06:33;;;;;;;4.70;3.67;;;;;;;21.05;59.94;102425.34;4970039;28;20433;-65
2023/05/31 09:09:00;;;;;;;6.03;3.70;;;;;;;21.21;64.01;102423.66;4970035;28;20085;-65
2023/05/31 09:11:26;;;;;;;4.40;3.22;;;;;;;21.40;61.47;102423.72;4968328;28;20027;-65
2023/05/31 09:13:52;;;;;;;4.68;3.28;;;;;;;21.56;58.09;102420.28;4969333;28;20069;-66
2023/05/31 09:16:17;;;;;;;5.10;3.25;;;;;;;21.69;58.15;102416.75;4983976;28;20062;-66
2023/05/31 09:18:42;;;;;;;5.40;3.30;;;;;;;21.90;58.34;102417.72;4969389;28;20485;-65
2023/05/31 09:21:10;;;;;;;4.18;3.30;;;;;;;21.83;55.89;102418.59;4967469;28;20101;-66
2023/05/31 09:23:36;;;;;;;5.20;3.60;;;;;;;22.00;59.60;102413.28;4968509;28;20039;-66
2023/05/31 09:26:01;;;;;;;4.75;3.30;;;;;;;22.12;58.77;102408.00;4967992;28;20033;-66
2023/05/31 09:28:26;;;;;;;5.50;3.20;;;;;;;22.15;55.26;102413.31;4968910;28;20027;-60
2023/05/31 09:31:03;;;;;;;4.55;3.30;;;;;;;22.06;57.39;102408.88;4969209;28;20069;-60
2023/05/31 09:33:40;;;;;;;4.28;2.97;;;;;;;22.30;57.70;102404.44;4968990;28;20037;-61
2023/05/31 09:36:05;;;;;;;3.92;2.90;;;;;;;22.63;57.09;102409.78;4968408;28;20065;-60
2023/05/31 09:38:33;;;;;;;4.10;3.03;;;;;;;22.93;52.46;102404.38;4969010;28;20474;-60
2023/05/31 09:41:15;;;;;;;3.58;2.60;;;;;;;22.92;53.88;102399.06;4968779;28;20552;-60
2023/05/31 09:43:42;;;;;;;4.32;3.13;;;;;;;22.73;52.08;102391.13;4977106;28;20576;-60
2023/05/31 09:46:12;;;;;;;4.38;2.78;;;;;;;22.98;55.72;102380.44;4968572;28;20518;-60
2023/05/31 09:48:37;;;;;;;4.40;3.10;;;;;;;23.25;54.27;102381.25;4968726;28;20382;-59
2023/05/31 09:51:06;;;;;;;4.25;2.50;;;;;;;23.36;52.37;102375.88;4968677;28;20043;-60
2023/05/31 09:53:32;;;;;;;4.45;2.70;;;;;;;23.54;52.87;102375.75;4968415;28;20038;-60
2023/05/31 09:55:57;;;;;;;4.18;2.72;;;;;;;23.40;47.67;102375.84;4968525;28;20089;-60
2023/05/31 09:58:32;;;;;;;4.10;2.67;;;;;;;23.51;51.68;102372.25;4968602;28;20085;-60
2023/05/31 10:01:00;;;;;;;3.97;2.65;;;;;;;23.65;51.01;102383.69;4968182;28;20444;-59
2023/05/31 10:03:31;;;;;;;3.97;2.63;;;;;;;23.59;49.90;102373.06;4965951;28;20058;-60
2023/05/31 10:05:56;;;;;;;4.30;2.25;;;;;;;23.71;50.17;102372.09;4966801;28;20027;-60
2023/05/31 10:08:22;;;;;;;4.35;2.20;;;;;;;23.84;50.99;102375.56;4968242;28;20638;-66
2023/05/31 10:10:47;;;;;;;3.90;2.40;;;;;;;24.07;54.15;102371.00;4968220;28;20101;-66
2023/05/31 10:13:15;;;;;;;3.58;2.20;;;;;;;24.18;50.57;102375.34;4968109;28;20035;-66
2023/05/31 10:15:44;;;;;;;3.85;2.33;;;;;;;24.20;51.28;102377.09;4968292;28;20031;-66
2023/05/31 10:18:11;;;;;;;7.57;2.30;;;;;;;24.16;43.68;102369.13;4961119;28;20077;-66
2023/05/31 10:20:48;;;;;;;3.72;2.38;;;;;;;24.18;47.66;102359.34;4962872;28;20341;-65
2023/05/31 10:23:21;;;;;;;6.32;2.28;;;;;;;24.33;50.61;102359.19;4965040;28;20043;-65
2023/05/31 10:26:10;;;;;;;3.63;2.40;;;;;;;24.59;49.64;102360.72;4966153;28;20026;-65
2023/05/31 10:28:38;;;;;;;3.75;2.10;;;;;;;24.88;50.18;102352.41;4967015;28;20037;-66
2023/05/31 10:31:04;;;;;;;3.28;2.03;;;;;;;25.09;48.75;102353.94;4964006;28;20208;-65
2023/05/31 10:33:30;;;;;;;3.83;2.15;;;;;;;24.83;41.76;102347.13;4963762;28;20520;-65
2023/05/31 10:36:00;;;;;;;3.83;1.70;;;;;;;24.84;44.11;102342.72;4963476;28;20510;-65
2023/05/31 10:38:30;;;;;;;3.67;1.80;;;;;;;24.95;46.86;102331.88;4964022;28;20034;-60
2023/05/31 10:41:02;;;;;;;3.08;1.80;;;;;;;25.12;46.37;102329.88;4963117;28;20041;-60
2023/05/31 10:43:37;;;;;;;3.65;2.03;;;;;;;25.24;45.02;102335.94;4966143;28;20450;-60
2023/05/31 10:46:15;;;;;;;3.25;1.70;;;;;;;25.30;45.03;102330.53;4965530;28;20027;-60
2023/05/31 10:48:55;;;;;;;3.75;1.90;;;;;;;25.44;45.66;102323.22;4966715;28;20081;-59
2023/05/31 10:51:39;;;;;;;2.92;1.60;;;;;;;25.57;42.49;102336.41;4966455;28;20085;-60
2023/05/31 10:54:05;;;;;;;3.97;1.50;;;;;;;25.45;41.65;102327.66;4964004;28;20052;-60
2023/05/31 10:56:30;;;;;;;4.20;1.67;;;;;;;25.28;40.96;102325.22;4966445;28;20037;-59
2023/05/31 10:58:56;;;;;;;3.90;2.20;;;;;;;25.33;41.18;102323.41;4966998;28;20402;-60
2023/05/31 11:01:21;;;;;;;3.70;1.95;;;;;;;25.62;44.47;102321.19;4964994;28;20114;-60
2023/05/31 11:03:50;;;;;;;4.32;1.70;;;;;;;25.94;42.68;102330.44;4964348;28;20031;-60
2023/05/31 11:06:17;;;;;;;3.65;1.88;;;;;;;26.08;42.52;102323.09;4966219;28;20102;-60
2023/05/31 11:09:08;;;;;;;3.47;1.48;;;;;;;26.21;44.13;102321.09;4966454;28;20033;-60
2023/05/31 11:11:33;;;;;;;3.50;1.80;;;;;;;26.24;43.13;102314.81;4966567;28;20043;-60
2023/05/31 11:14:01;;;;;;;3.67;1.53;;;;;;;26.32;42.40;102295.06;4967319;28;20101;-60
2023/05/31 11:16:27;;;;;;;3.53;1.58;;;;;;;26.49;43.10;102312.53;4966011;28;20340;-61
2023/05/31 11:19:05;;;;;;;3.55;1.80;;;;;;;26.53;41.83;102307.13;4962670;28;20026;-60
2023/05/31 11:21:51;;;;;;;2.88;1.65;;;;;;;26.70;42.44;102308.59;4964514;28;20038;-60
2023/05/31 11:24:31;;;;;;;2.72;1.52;;;;;;;26.84;41.40;102305.66;4966698;28;20030;-60
2023/05/31 11:26:58;;;;;;;2.95;1.40;;;;;;;26.81;40.82;102303.00;4965019;28;20506;-60
2023/05/31 11:29:24;;;;;;;3.58;1.60;;;;;;;26.75;39.85;102300.47;4965757;28;20624;-60